aviador You're here:

KINF Decoded Metar

in
Report Time2018-02-17 23:15:00
UTC Time2018-02-17 23:40:53
Flight Rules mvfr MVFR
WindCalm
Visibility8047 m
Phenomena:Haze
Clouds:N/A
Expected CloudBase > 2,400 ft AGL from Temp-Dew spread
CeilingNone
Temp21°C
Dew Point15°C (69% RH)
QNH1023 hPa
Raw Report
METAR KINF 172315Z AUTO 00000KT 5SM HZ CLR 21/15 A3021 RMK AO2=

Extra information for KINF:More info

Social comments